METAR

ENBN 282050Z 19013KT 5000 SHRA SCT008 BKN015 10/09 Q0997

ENMS 282050Z 18002KT 9999 -SHRA FEW022 BKN030 07/06 Q0997 RMK WIND 412FT 15006KT

ENNM 282020Z 07005KT 9999 BKN045 07/07 Q0998

ENOL 282050Z 10006KT 9999 SCT030 BKN060 08/08 Q0998 TEMPO RA BKN012

ENST 282050Z 19013KT 9999 -RA SCT007 BKN009 10/09 Q0996 RMK WIND 300FT 18018KT

ENVA 282050Z 10003KT 080V130 9999 -DZ FEW030 08/08 Q0998 RMK WIND 670FT 11007KT



TAF

TAF ENVA 281700Z 2818/2918 10005KT 9999 -RA FEW030 BKN060 PROB40 TEMPO 2818/2908 RA